Liverpool John Lennon Airport

EGGP · Anglia, Wielka Brytania

Historia METAR EGGP · Liverpool John Lennon Airport

Poniżej widzisz METAR-y z ostatnich kilku dni. Wybierz rok, aby przeglądać starsze METAR-y, począwszy od roku 2007.

6 grudnia 2022

Czas Kod Pogoda Temp. Widoczność Sufit Wiatr METAR/SPECI
23:20
V
2 °C 10 km+ - 350° 350° 6 kt METAR EGGP 062320Z 35006KT CAVOK 02/00 Q1026
22:50
V
2 °C 10 km+ - 350° 350° 6 kt METAR EGGP 062250Z 35006KT CAVOK 02/00 Q1026
22:20
V
2 °C 10 km+ - 330° 330° 5 kt METAR EGGP 062220Z 33005KT 9999 FEW025 02/M00 Q1026
21:50
V
2 °C 10 km+ - 310° 310° 5 kt METAR EGGP 062150Z 31005KT CAVOK 02/00 Q1026
21:20
V
2 °C 10 km+ - 310° 310° 5 kt METAR EGGP 062120Z 31005KT 9999 FEW040 02/M00 Q1026
20:50
V
3 °C 10 km+ - 340° 340° 4 kt METAR EGGP 062050Z 34004KT 9999 FEW040 03/00 Q1026
20:20
V
4 °C 10 km+ - 340° 340° 6 kt METAR EGGP 062020Z 34006KT 9999 FEW040 04/01 Q1026
19:50
V
4 °C 10 km+ - 340° 340° 6 kt METAR EGGP 061950Z 34006KT 9999 FEW033 04/01 Q1026
19:20
V
4 °C 10 km+ - 340° 340° 7 kt METAR EGGP 061920Z 34007KT 9999 FEW030 04/01 Q1026
18:50
V
4 °C 10 km+ - 350° 350° 8 kt METAR EGGP 061850Z 35008KT 320V120 9999 FEW030 04/01 Q1026
18:20
V
4 °C 10 km+ - 350° 350° 8 kt METAR EGGP 061820Z 35008KT 9999 SCT027 04/01 Q1026
17:50
V
4 °C 10 km+ - 350° 350° 7 kt METAR EGGP 061750Z 35007KT 9999 FEW038 04/01 Q1026
17:20
V
4 °C 10 km+ - 330° 330° 5 kt METAR EGGP 061720Z 33005KT 9999 FEW026 04/01 Q1026
16:50
V
3 °C 10 km+ - 330° 330° 5 kt METAR EGGP 061650Z 33005KT CAVOK 03/01 Q1025
16:20
V
4 °C 10 km+ - 320° 320° 5 kt METAR EGGP 061620Z 32005KT 9999 FEW045 04/01 Q1025
15:50
V
5 °C 10 km+ - 350° 350° 6 kt METAR EGGP 061550Z 35006KT 9999 SCT047 05/01 Q1025
15:20
V
6 °C 10 km+ - 330° 330° 8 kt METAR EGGP 061520Z 33008KT 9999 SCT046 06/02 Q1025
14:50
V
6 °C 10 km+ - 320° 320° 5 kt METAR EGGP 061450Z 32005KT 290V350 9999 FEW048 06/02 Q1026
14:20
V
6 °C 10 km+ - 320° 320° 6 kt METAR EGGP 061420Z 32006KT CAVOK 06/02 Q1026
13:50
V
5 °C 10 km+ - 320° 320° 5 kt METAR EGGP 061350Z 32005KT 9999 FEW044 05/01 Q1026
13:20
V
5 °C 10 km+ 4.000 ft 320° 320° 5 kt METAR EGGP 061320Z 32005KT 9999 BKN040 05/01 Q1026
12:50
V
5 °C 10 km+ 4.000 ft 310° 310° 6 kt METAR EGGP 061250Z 31006KT 270V330 9999 BKN040 05/01 Q1026
12:20
V
5 °C 10 km+ 3.700 ft 280° 280° 4 kt METAR EGGP 061220Z 28004KT 9999 BKN037 05/01 Q1026
11:50
V
5 °C 10 km+ 3.700 ft Var Var 2 kt METAR EGGP 061150Z VRB02KT 9999 BKN037 05/01 Q1026
11:20
V
4 °C 10 km+ - 350° 350° 5 kt METAR EGGP 061120Z 35005KT 9999 SCT040 04/01 Q1027
10:50
V
4 °C 10 km+ - 350° 350° 5 kt METAR EGGP 061050Z 35005KT 320V020 9999 SCT040 SCT048 04/01 Q1027
10:20
V
4 °C 10 km+ - 360° 360° 9 kt METAR EGGP 061020Z 36009KT 9999 SCT030 04/01 Q1027
09:50
V
4 °C 10 km+ - 010° 010° 10 kt METAR EGGP 060950Z 01010KT 9999 SCT030 04/01 Q1027
09:20
V
4 °C 10 km+ - 360° 360° 10 kt METAR EGGP 060920Z 36010KT 9999 SCT027 04/01 Q1026
08:50
M
4 °C 10 km+ 2.700 ft 360° 360° 9 kt METAR EGGP 060850Z 36009KT 9999 BKN027 04/01 Q1026
08:20
M
4 °C 10 km+ 2.700 ft 350° 350° 9 kt METAR EGGP 060820Z 35009KT 9999 BKN027 04/01 Q1026
07:50
M
3 °C 10 km+ 2.800 ft 360° 360° 8 kt METAR EGGP 060750Z 36008KT 310V030 9999 BKN028 03/00 Q1026
07:20
V
3 °C 10 km+ 3.300 ft 350° 350° 9 kt METAR EGGP 060720Z 35009KT 9999 BKN033 03/00 Q1026
06:50
V
3 °C 10 km+ 3.300 ft 350° 350° 10 kt METAR EGGP 060650Z 35010KT 9999 OVC033 03/M00 Q1026
06:20
V
3 °C 10 km+ - 350° 350° 7 kt METAR EGGP 060620Z 35007KT 9999 SCT028 SCT034 03/M00 Q1027
05:50
V
2 °C 10 km+ - 360° 360° 9 kt METAR EGGP 060550Z 36009KT 9999 FEW030 02/M00 Q1027
05:20
V
2 °C 10 km+ - 360° 360° 10 kt METAR EGGP 060520Z 36010KT CAVOK 02/00 Q1027
04:50
M
0 °C 10 km+ 2.800 ft 360° 360° 8 kt METAR EGGP 060450Z AUTO 36008KT 9999 BKN028/// ///// Q1027
04:20
V
3 °C 10 km+ 3.000 ft 360° 360° 7 kt METAR EGGP 060420Z AUTO 36007KT 9999 OVC030/// 03/00 Q1027
03:50
V
3 °C 10 km+ 3.000 ft 360° 360° 6 kt METAR EGGP 060350Z AUTO 36006KT 9999 BKN030/// 03/00 Q1027
03:20
V
3 °C 10 km+ 3.300 ft 360° 360° 6 kt METAR EGGP 060320Z 36006KT 9999 OVC033 03/01 Q1027
02:50
V
0 °C 10 km+ 3.300 ft 360° 360° 6 kt METAR EGGP 060250Z AUTO 36006KT 9999 OVC033/// ///// Q1027
02:20
V
0 °C 10 km+ - 020° 020° 9 kt METAR EGGP 060220Z AUTO 02009KT 9999 SCT037/// ///// Q1027
01:50
V
0 °C 10 km+ - 010° 010° 11 kt METAR EGGP 060150Z AUTO 01011KT 9999 FEW041/// ///// Q1028
01:20
V
0 °C 10 km+ - 020° 020° 10 kt METAR EGGP 060120Z AUTO 02010KT 9999 SCT038/// SCT046/// ///// Q1028
00:50
V
0 °C 10 km+ - 010° 010° 9 kt METAR EGGP 060050Z AUTO 01009KT 9999 NCD ///// Q1028
00:20
V
0 °C 10 km+ - 360° 360° 8 kt METAR EGGP 060020Z AUTO 36008KT 9999 FEW024/// SCT036/// ///// Q1028

5 grudnia 2022

Czas Kod Pogoda Temp. Widoczność Sufit Wiatr METAR/SPECI
23:50
V
4 °C 10 km+ 3.200 ft 360° 360° 6 kt METAR EGGP 052350Z AUTO 36006KT 9999 BKN032/// BKN037/// 04/02 Q1028
23:20
V
4 °C 10 km+ 3.000 ft 010° 010° 6 kt METAR EGGP 052320Z 01006KT 9999 FEW020 BKN030 04/02 Q1028
22:50
V
5 °C 10 km+ 3.700 ft 040° 040° 9 kt METAR EGGP 052250Z 04009KT 9999 FEW026 BKN037 05/02 Q1028
22:20
V
5 °C 10 km+ 3.100 ft 040° 040° 9 kt METAR EGGP 052220Z 04009KT 9999 FEW026 BKN031 05/02 Q1028
21:50
V
5 °C 10 km+ 3.100 ft 020° 020° 6 kt METAR EGGP 052150Z 02006KT 9999 FEW026 BKN031 05/03 Q1028
21:20
V
5 °C 10 km+ 3.300 ft 020° 020° 5 kt METAR EGGP 052120Z 02005KT 9999 FEW019 BKN033 05/03 Q1028
20:50
V
5 °C 10 km+ 3.300 ft 050° 050° 6 kt METAR EGGP 052050Z 05006KT 9999 -RA FEW020 BKN033 05/03 Q1028
20:20
V
5 °C 10 km+ 3.100 ft 030° 030° 6 kt METAR EGGP 052020Z 03006KT 9999 FEW020 BKN031 05/03 Q1028
19:50
V
5 °C 10 km+ 3.300 ft 040° 040° 8 kt METAR EGGP 051950Z 04008KT 9999 FEW026 BKN033 05/02 Q1028
19:20
V
5 °C 10 km+ 3.300 ft 030° 030° 8 kt METAR EGGP 051920Z 03008KT 9999 BKN033 05/02 Q1028
18:50
V
6 °C 10 km+ - 040° 040° 10 kt METAR EGGP 051850Z 04010KT 9999 SCT047 06/02 Q1027
18:20
V
6 °C 10 km+ - 040° 040° 10 kt METAR EGGP 051820Z 04010KT 9999 SCT047 06/02 Q1027
17:50
V
6 °C 10 km+ - 040° 040° 10 kt METAR EGGP 051750Z 04010KT 9999 FEW048 06/02 Q1027
17:20
V
7 °C 10 km+ - 050° 050° 9 kt METAR EGGP 051720Z 05009KT 9999 FEW040 07/03 Q1027
16:50
V
7 °C 10 km+ - 050° 050° 9 kt METAR EGGP 051650Z 05009KT 9999 FEW040 07/03 Q1027
16:20
V
7 °C 10 km+ - 040° 040° 9 kt METAR EGGP 051620Z 04009KT 9999 FEW040 07/03 Q1026
15:50
V
0 °C 10 km+ - 050° 050° 9 kt METAR EGGP 051550Z AUTO 05009KT 9999 FEW037/// SCT045/// ///// Q1026
15:20
V
0 °C 10 km+ - 050° 050° 10 kt METAR EGGP 051520Z AUTO 05010KT 9999 NCD ///// Q1026
14:50
V
0 °C 10 km+ - 040° 040° 12 kt METAR EGGP 051450Z AUTO 04012KT 9999 NCD ///// Q1026
14:20
V
0 °C 10 km+ 4.900 ft 050° 050° 12 kt METAR EGGP 051420Z AUTO 05012KT 9999 OVC049/// ///// Q////
13:50
V
0 °C 10 km+ - 040° 040° 12 kt METAR EGGP 051350Z AUTO 04012KT 9999 NCD ///// Q////
13:20
V
0 °C 10 km+ - 020° 020° 9 kt METAR EGGP 051320Z AUTO 02009KT 9999 FEW034/// ///// Q1026
12:50
V
0 °C 10 km+ - 020° 020° 9 kt METAR EGGP 051250Z AUTO 02009KT 9999 SCT043/// ///// Q////
12:20
V
0 °C 10 km+ - 020° 020° 10 kt METAR EGGP 051220Z AUTO 02010KT 9999 NCD ///// Q////
11:50
V
0 °C 10 km+ 4.700 ft 010° 010° 6 kt METAR EGGP 051150Z AUTO 01006KT 9999 FEW033/// SCT038/// BKN047/// ///// Q////
11:20
V
0 °C 10 km+ - 010° 010° 8 kt METAR EGGP 051120Z AUTO 01008KT 9999 FEW038/// ///// Q1026
10:50
V
0 °C 10 km+ 3.200 ft 010° 010° 10 kt METAR EGGP 051050Z AUTO 01010KT 9999 BKN032/// BKN038/// ///// Q1026
10:20
V
0 °C 10 km+ 4.000 ft 360° 360° 8 kt METAR EGGP 051020Z AUTO 36008KT 9999 SCT033/// BKN040/// OVC049/// ///// Q1026
09:50
V
0 °C 10 km+ 3.400 ft 020° 020° 9 kt METAR EGGP 050950Z AUTO 02009KT 9999 OVC034/// ///// Q////
09:20
V
0 °C 10 km+ 3.500 ft 020° 020° 7 kt METAR EGGP 050920Z AUTO 02007KT 9999 BKN035/// ///// Q1026
08:50
V
0 °C 10 km+ 3.200 ft 020° 020° 7 kt METAR EGGP 050850Z AUTO 02007KT 9999 BKN032/// ///// Q1026
08:20
V
0 °C 10 km+ 4.900 ft 020° 020° 8 kt METAR EGGP 050820Z AUTO 02008KT 9999 FEW037/// BKN049/// ///// Q1025
07:50
V
0 °C 10 km+ 4.700 ft 010° 010° 8 kt METAR EGGP 050750Z AUTO 01008KT 9999 FEW032/// SCT038/// OVC047/// ///// Q1025
07:20
V
0 °C 10 km+ 4.700 ft 010° 010° 7 kt METAR EGGP 050720Z AUTO 01007KT 9999 FEW018/// SCT033/// BKN047/// ///// Q1025
06:50
V
0 °C 10 km+ 3.300 ft 020° 020° 6 kt METAR EGGP 050650Z AUTO 02006KT 9999 FEW022/// SCT028/// BKN033/// ///// Q1025
06:20
V
0 °C 10 km+ 3.600 ft 010° 010° 7 kt METAR EGGP 050620Z AUTO 01007KT 330V030 9999 BKN036/// OVC048/// ///// Q1025
05:50
V
0 °C 10 km+ - 360° 360° 7 kt METAR EGGP 050550Z AUTO 36007KT 9999 FEW019/// ///// Q1025
05:20
V
0 °C 10 km+ - 010° 010° 6 kt METAR EGGP 050520Z AUTO 01006KT 9999 SCT020/// ///// Q1024
04:50
V
0 °C 10 km+ - 030° 030° 8 kt METAR EGGP 050450Z AUTO 03008KT 9999 SCT034/// ///// Q1024
00:20
V
0 °C 10 km+ 3.600 ft 020° 020° 8 kt METAR EGGP 050020Z AUTO 02008KT 9999 SCT031/// BKN036/// ///// Q1023

4 grudnia 2022

Czas Kod Pogoda Temp. Widoczność Sufit Wiatr METAR/SPECI
23:50
V
0 °C 10 km+ 3.300 ft 020° 020° 8 kt METAR EGGP 042350Z AUTO 02008KT 9999 BKN033/// ///// Q1023
23:20
V
0 °C 10 km+ 3.700 ft 010° 010° 7 kt METAR EGGP 042320Z AUTO 01007KT 9999 FEW022/// SCT032/// BKN037/// ///// Q1023
22:50
M
0 °C 10 km+ 2.800 ft 030° 030° 8 kt METAR EGGP 042250Z AUTO 03008KT 9999 SCT023/// BKN028/// BKN033/// ///// Q1023
22:20
M
0 °C 10 km+ 2.600 ft 020° 020° 8 kt METAR EGGP 042220Z AUTO 02008KT 9999 BKN026/// BKN032/// OVC037/// ///// Q1023
21:50
V
0 °C 10 km+ 3.100 ft 020° 020° 6 kt METAR EGGP 042150Z AUTO 02006KT 9999 SCT026/// BKN031/// ///// Q1022
21:20
M
0 °C 10 km+ 2.700 ft 040° 040° 6 kt METAR EGGP 042120Z AUTO 04006KT 9999 BKN027/// BKN032/// ///// Q1022
20:50
V
0 °C 10 km+ - 050° 050° 6 kt METAR EGGP 042050Z AUTO 05006KT 9999 SCT024/// SCT030/// ///// Q1022
20:20
V
0 °C 10 km+ - 060° 060° 7 kt METAR EGGP 042020Z AUTO 06007KT 9999 FEW024/// SCT029/// ///// Q1022
19:50
M
0 °C 10 km+ 1.700 ft 060° 060° 6 kt METAR EGGP 041950Z AUTO 06006KT 9999 BKN017/// BKN022/// OVC047/// ///// Q1022
19:20
M
0 °C 10 km+ 2.000 ft 060° 060° 7 kt METAR EGGP 041920Z AUTO 06007KT 9999 BKN020/// BKN027/// OVC041/// ///// Q1022
18:50
V
0 °C 10 km+ 4.000 ft 060° 060° 8 kt METAR EGGP 041850Z AUTO 06008KT 9999 FEW020/// BKN040/// ///// Q1021
18:20
M
0 °C 10 km+ 2.900 ft 060° 060° 11 kt METAR EGGP 041820Z AUTO 06011KT 9999 FEW024/// BKN029/// BKN035/// ///// Q1021
17:50
M
0 °C 10 km+ 2.700 ft 060° 060° 9 kt METAR EGGP 041750Z AUTO 06009KT 9999 SCT021/// BKN027/// OVC032/// ///// Q1021
17:20
M
0 °C 10 km+ 2.900 ft 040° 040° 7 kt METAR EGGP 041720Z AUTO 04007KT 9999 FEW023/// BKN029/// BKN045/// ///// Q1020
16:50
V
0 °C 10 km+ 3.400 ft 040° 040° 10 kt METAR EGGP 041650Z AUTO 04010KT 9999 -RA FEW023/// SCT028/// OVC034/// ///// Q1020
16:20
M
0 °C 10 km+ 2.900 ft 040° 040° 8 kt METAR EGGP 041620Z AUTO 04008KT 9999 BKN029/// OVC035/// ///// Q1020
15:50
V
0 °C 10 km+ 3.500 ft 040° 040° 10 kt METAR EGGP 041550Z AUTO 04010KT 9999 SCT029/// BKN035/// ///// Q1020
15:20
V
0 °C 10 km+ 3.300 ft 030° 030° 8 kt METAR EGGP 041520Z AUTO 03008KT 9999 FEW027/// BKN033/// OVC038/// ///// Q1020
14:50
V
0 °C 10 km+ 3.500 ft 040° 040° 8 kt METAR EGGP 041450Z AUTO 04008KT 9999 FEW030/// OVC035/// ///// Q1020
14:20
V
0 °C 10 km+ 3.800 ft 030° 030° 8 kt METAR EGGP 041420Z AUTO 03008KT 9999 FEW027/// SCT032/// OVC038/// ///// Q1019
13:50
M
0 °C 10 km+ 2.700 ft 030° 030° 8 kt METAR EGGP 041350Z AUTO 03008KT 9999 FEW015/// BKN027/// OVC035/// ///// Q1019
13:20
M
0 °C 10 km+ 2.300 ft 030° 030° 7 kt METAR EGGP 041320Z AUTO 03007KT 9999 BKN023/// OVC030/// ///// Q1019
12:50
M
0 °C 10 km+ 2.500 ft 030° 030° 8 kt METAR EGGP 041250Z AUTO 03008KT 9999 BKN025/// OVC030/// ///// Q1019
12:20
M
0 °C 10 km+ 2.500 ft 030° 030° 7 kt METAR EGGP 041220Z AUTO 03007KT 9999 OVC025/// ///// Q1020
11:50
V
0 °C 10 km+ 3.000 ft 030° 030° 8 kt METAR EGGP 041150Z AUTO 03008KT 9999 FEW023/// BKN030/// OVC035/// ///// Q1020
11:20
M
0 °C 10 km+ 2.300 ft 040° 040° 10 kt METAR EGGP 041120Z AUTO 04010KT 9999 BKN023/// OVC029/// ///// Q1020
10:50
M
0 °C 10 km+ 2.500 ft 040° 040° 9 kt METAR EGGP 041050Z AUTO 04009KT 9999 BKN025/// BKN031/// OVC036/// ///// Q1020
10:20
V
0 °C 10 km+ 3.800 ft 040° 040° 10 kt METAR EGGP 041020Z AUTO 04010KT 9999 SCT032/// OVC038/// ///// Q1020
09:50
V
0 °C 10 km+ - 040° 040° 8 kt METAR EGGP 040950Z AUTO 04008KT 9999 SCT041/// ///// Q1020

My i strony trzecie śledzimy Twoje zachowanie internetowe na naszej stronie za pomocą plików cookie. Jeśli kontynuujesz, zakładamy, że zgadzasz się z naszymi polityka plików cookie.